Time;durP1;ratioP1;P1;durP2;ratioP2;P2;SDS_P1;SDS_P2;PMS_P1;PMS_P2;Temp;Humidity;BMP_temperature;BMP_pressure;BME280_temperature;BME280_humidity;BME280_pressure;Samples;Min_cycle;Max_cycle;Signal;HPM_P1;HPM_P2
2022/08/14 00:00:29;;;;;;;4.00;3.60;;;;;;;20.75;50.51;95359.44;4907700;29;20206;-81
2022/08/14 00:02:56;;;;;;;4.60;4.13;;;;;;;20.81;49.99;95350.59;4896965;29;20284;-81
2022/08/14 00:05:23;;;;;;;4.30;3.90;;;;;;;20.81;49.90;95352.44;4899978;29;20231;-81
2022/08/14 00:07:50;;;;;;;4.45;4.05;;;;;;;20.75;50.09;95346.38;4887843;29;20203;-81
2022/08/14 00:10:20;;;;;;;7.43;4.97;;;;;;;20.74;49.91;95344.00;4904364;29;20259;-80
2022/08/14 00:12:48;;;;;;;6.40;4.90;;;;;;;20.61;50.32;95340.72;4906256;29;20247;-81
2022/08/14 00:15:18;;;;;;;4.75;4.35;;;;;;;20.33;51.51;95338.28;4888647;29;20239;-80
2022/08/14 00:17:46;;;;;;;5.00;4.15;;;;;;;20.08;51.90;95341.34;4893193;29;20198;-81
2022/08/14 00:20:14;;;;;;;5.00;4.32;;;;;;;20.12;52.10;95342.44;4902904;29;20276;-80
2022/08/14 00:22:40;;;;;;;5.88;4.50;;;;;;;20.14;52.07;95342.22;4887182;29;20238;-80
2022/08/14 00:25:08;;;;;;;5.63;4.70;;;;;;;20.23;51.99;95338.91;4888675;29;20239;-80
2022/08/14 00:27:35;;;;;;;7.53;4.85;;;;;;;20.21;52.25;95337.56;4903607;29;20207;-80
2022/08/14 00:30:02;;;;;;;5.38;4.88;;;;;;;20.24;51.70;95335.28;4887153;29;20711;-81
2022/08/14 00:32:28;;;;;;;5.43;4.68;;;;;;;20.35;51.11;95333.59;4901185;29;20311;-80
2022/08/14 00:34:55;;;;;;;5.72;4.95;;;;;;;20.32;51.74;95329.63;4887261;29;20307;-81
2022/08/14 00:37:23;;;;;;;8.02;5.30;;;;;;;20.38;51.62;95325.28;4905300;29;20449;-81
2022/08/14 00:39:50;;;;;;;5.43;4.93;;;;;;;20.48;51.11;95328.00;4889190;29;20200;-81
2022/08/14 00:42:19;;;;;;;8.80;7.93;;;;;;;20.45;51.35;95328.50;4886714;29;20273;-81
2022/08/14 00:44:45;;;;;;;9.90;8.98;;;;;;;20.42;51.08;95330.81;4901003;29;20251;-80
2022/08/14 00:47:14;;;;;;;8.90;8.10;;;;;;;20.45;51.11;95320.66;4905733;29;20262;-80
2022/08/14 00:49:41;;;;;;;8.27;7.47;;;;;;;20.43;51.13;95316.69;4896575;29;20289;-80
2022/08/14 00:52:08;;;;;;;8.40;7.13;;;;;;;20.34;51.11;95317.09;4908860;29;20595;-81
2022/08/14 00:54:37;;;;;;;6.68;6.15;;;;;;;20.29;51.73;95311.03;4908760;29;20262;-80
2022/08/14 00:57:04;;;;;;;7.00;6.40;;;;;;;20.24;51.69;95308.34;4909687;29;20203;-81
2022/08/14 00:59:31;;;;;;;6.85;6.20;;;;;;;20.12;52.04;95302.44;4907857;29;20202;-81
2022/08/14 01:01:59;;;;;;;6.20;5.70;;;;;;;20.15;52.09;95304.59;4906932;29;20354;-81
2022/08/14 01:04:27;;;;;;;6.93;6.22;;;;;;;20.15;52.04;95307.19;4905236;29;20649;-80
2022/08/14 01:06:54;;;;;;;6.70;6.10;;;;;;;20.12;52.43;95310.28;4906827;29;20241;-81
2022/08/14 01:09:21;;;;;;;9.68;5.47;;;;;;;20.12;52.37;95307.69;4893121;29;20203;-81
2022/08/14 01:11:50;;;;;;;6.28;5.68;;;;;;;20.06;52.33;95304.19;4887777;29;20261;-81
2022/08/14 01:14:16;;;;;;;6.22;5.63;;;;;;;20.07;52.14;95300.56;4900442;29;20287;-80
2022/08/14 01:16:43;;;;;;;5.80;5.30;;;;;;;20.13;52.46;95301.41;4905453;29;20218;-81
2022/08/14 01:21:55;;;;;;;5.05;4.65;;;;;;;20.12;52.20;95295.41;4886917;29;20247;-81
2022/08/14 01:24:22;;;;;;;5.85;4.30;;;;;;;20.10;52.34;95296.66;4901032;29;20230;-80
2022/08/14 01:26:48;;;;;;;5.63;4.68;;;;;;;20.01;52.57;95293.69;4888326;29;20203;-80
2022/08/14 01:29:16;;;;;;;5.20;4.72;;;;;;;19.88;52.84;95296.66;4901433;29;20210;-80
2022/08/14 01:31:43;;;;;;;6.47;5.28;;;;;;;19.77;53.14;95284.50;4904118;29;20833;-81
2022/08/14 01:34:10;;;;;;;5.72;5.05;;;;;;;19.77;53.12;95289.72;4892974;29;20254;-80
2022/08/14 01:36:38;;;;;;;5.45;4.95;;;;;;;19.72;53.34;95282.59;4889697;29;20263;-81
2022/08/14 01:39:11;;;;;;;5.15;4.60;;;;;;;19.79;53.51;95278.00;4907602;29;20239;-81
2022/08/14 01:41:38;;;;;;;5.20;4.80;;;;;;;19.67;54.25;95275.47;4904974;29;20210;-81
2022/08/14 01:44:11;;;;;;;5.55;5.05;;;;;;;19.77;53.88;95269.59;4888306;29;20269;-80
2022/08/14 01:46:39;;;;;;;4.95;4.53;;;;;;;19.76;53.76;95264.63;4890066;29;20207;-81
2022/08/14 01:49:07;;;;;;;5.78;5.00;;;;;;;19.79;53.58;95251.88;4898325;29;20210;-81
2022/08/14 01:51:35;;;;;;;5.38;4.88;;;;;;;19.81;53.47;95249.81;4887309;29;20655;-81
2022/08/14 01:54:05;;;;;;;5.22;4.82;;;;;;;19.76;53.45;95241.91;4894987;29;20230;-80
2022/08/14 01:56:36;;;;;;;5.38;4.75;;;;;;;19.71;54.24;95239.22;4907748;29;20211;-80
2022/08/14 01:59:04;;;;;;;6.10;4.95;;;;;;;19.73;53.66;95236.38;4899827;29;20207;-80
2022/08/14 02:01:30;;;;;;;5.68;5.18;;;;;;;19.65;54.24;95222.69;4890551;29;20687;-80
2022/08/14 02:03:57;;;;;;;5.07;4.60;;;;;;;19.62;54.04;95222.41;4895333;29;20231;-80
2022/08/14 02:06:25;;;;;;;5.82;4.90;;;;;;;19.66;53.74;95221.66;4892390;29;20208;-80
2022/08/14 02:08:52;;;;;;;6.30;5.70;;;;;;;19.67;53.92;95217.22;4897063;29;20230;-80
2022/08/14 02:11:21;;;;;;;5.10;4.70;;;;;;;19.74;54.01;95220.44;4909925;29;20230;-81
2022/08/14 02:13:53;;;;;;;5.53;4.40;;;;;;;19.76;53.65;95217.59;4906831;29;20727;-80
2022/08/14 02:16:24;;;;;;;5.30;4.63;;;;;;;19.74;54.09;95223.06;4892260;29;20236;-80
2022/08/14 02:18:51;;;;;;;4.65;4.25;;;;;;;19.76;53.83;95221.00;4894876;29;20206;-80
2022/08/14 02:21:17;;;;;;;5.28;4.50;;;;;;;19.81;53.53;95223.69;4901676;29;20199;-80
2022/08/14 02:23:46;;;;;;;7.50;4.70;;;;;;;19.73;53.98;95225.91;4893159;29;20235;-80
2022/08/14 02:26:19;;;;;;;5.15;4.53;;;;;;;19.61;54.41;95226.81;4909222;29;20415;-80
2022/08/14 02:28:46;;;;;;;4.85;4.45;;;;;;;19.65;54.19;95214.06;4906923;29;20207;-80
2022/08/14 02:31:15;;;;;;;4.70;4.30;;;;;;;19.69;53.80;95209.13;4890501;29;20366;-80
2022/08/14 02:33:42;;;;;;;4.88;4.47;;;;;;;19.59;54.66;95212.44;4898125;29;20267;-80
2022/08/14 02:36:11;;;;;;;7.03;4.25;;;;;;;19.45;55.17;95217.16;4909117;29;20207;-80
2022/08/14 02:38:39;;;;;;;4.80;4.40;;;;;;;19.37;55.31;95208.97;4908528;29;20226;-80
2022/08/14 02:41:09;;;;;;;4.90;4.50;;;;;;;19.29;55.36;95205.72;4909355;29;20203;-81
2022/08/14 02:43:37;;;;;;;4.60;4.28;;;;;;;19.31;54.89;95202.88;4902237;29;20236;-80
2022/08/14 02:46:04;;;;;;;4.30;4.00;;;;;;;19.31;55.39;95208.88;4899567;29;20211;-80
2022/08/14 02:48:35;;;;;;;4.30;3.92;;;;;;;19.33;54.95;95206.81;4896388;29;20223;-81
2022/08/14 02:51:05;;;;;;;4.53;4.13;;;;;;;19.34;55.20;95199.78;4889332;29;20236;-80
2022/08/14 02:53:32;;;;;;;4.70;4.30;;;;;;;19.16;55.38;95198.22;4904448;29;20719;-80
2022/08/14 02:56:00;;;;;;;4.55;4.15;;;;;;;19.12;55.98;95191.91;4909156;29;20207;-80
2022/08/14 02:58:26;;;;;;;5.80;4.30;;;;;;;18.84;57.21;95197.22;4905193;29;20210;-80
2022/08/14 03:00:53;;;;;;;5.57;4.43;;;;;;;18.93;57.01;95199.19;4903389;29;20207;-80
2022/08/14 03:03:22;;;;;;;4.90;4.20;;;;;;;18.92;57.52;95197.59;4901207;29;20227;-81
2022/08/14 03:05:51;;;;;;;5.38;4.22;;;;;;;18.94;57.57;95197.38;4898825;29;20564;-81
2022/08/14 03:08:18;;;;;;;4.70;4.30;;;;;;;18.96;56.71;95196.09;4887976;29;20275;-80
2022/08/14 03:10:45;;;;;;;4.75;4.35;;;;;;;19.01;57.17;95194.59;4900099;29;20298;-80
2022/08/14 03:13:12;;;;;;;5.10;4.60;;;;;;;18.91;57.14;95193.41;4904604;29;20231;-80
2022/08/14 03:15:39;;;;;;;4.68;4.28;;;;;;;18.91;57.54;95190.81;4887447;29;20344;-80
2022/08/14 03:18:10;;;;;;;4.45;4.05;;;;;;;18.96;57.13;95187.47;4888337;29;20211;-80
2022/08/14 03:20:36;;;;;;;5.57;4.40;;;;;;;18.94;57.39;95179.91;4905620;29;20262;-80
2022/08/14 03:23:04;;;;;;;5.18;4.68;;;;;;;19.03;56.97;95174.28;4898241;29;20231;-80
2022/08/14 03:25:32;;;;;;;5.20;4.80;;;;;;;18.90;57.35;95170.97;4888739;29;20232;-81
2022/08/14 03:28:02;;;;;;;5.60;4.53;;;;;;;18.76;57.93;95169.72;4905941;29;20241;-80
2022/08/14 03:30:30;;;;;;;4.95;4.55;;;;;;;18.72;58.23;95165.97;4899612;29;20232;-80
2022/08/14 03:32:57;;;;;;;4.88;4.38;;;;;;;18.72;58.31;95165.19;4886830;29;20231;-81
2022/08/14 03:35:24;;;;;;;4.97;4.50;;;;;;;18.63;58.50;95157.00;4893160;29;20290;-80
2022/08/14 03:37:51;;;;;;;5.90;4.93;;;;;;;18.48;59.40;95156.69;4904972;29;20207;-81
2022/08/14 03:40:19;;;;;;;4.95;4.32;;;;;;;18.45;59.58;95147.56;4903958;29;20279;-81
2022/08/14 03:42:46;;;;;;;5.03;4.50;;;;;;;18.46;59.18;95158.78;4905490;29;20234;-80
2022/08/14 03:45:12;;;;;;;5.05;4.65;;;;;;;18.43;59.12;95154.81;4899755;29;20227;-80
2022/08/14 03:47:40;;;;;;;5.55;4.32;;;;;;;18.63;58.67;95151.78;4895905;29;20270;-80
2022/08/14 03:50:09;;;;;;;5.38;4.88;;;;;;;18.63;58.90;95159.59;4904706;29;20680;-80
2022/08/14 03:52:36;;;;;;;5.00;4.60;;;;;;;18.67;58.86;95163.28;4897893;29;20223;-80
2022/08/14 03:55:05;;;;;;;5.10;4.70;;;;;;;18.76;57.97;95163.69;4904877;29;20254;-80
2022/08/14 03:57:34;;;;;;;4.72;4.32;;;;;;;18.84;58.09;95166.72;4902921;29;20210;-81
2022/08/14 04:00:03;;;;;;;4.82;4.35;;;;;;;18.91;58.08;95166.53;4893030;29;20270;-81
2022/08/14 04:02:30;;;;;;;7.00;4.43;;;;;;;18.96;58.39;95154.38;4904549;29;20685;-81
2022/08/14 04:04:56;;;;;;;4.95;4.53;;;;;;;18.97;58.00;95150.72;4887984;29;20242;-81
2022/08/14 04:07:23;;;;;;;5.10;4.55;;;;;;;19.02;57.87;95157.84;4887521;29;20351;-81
2022/08/14 04:09:49;;;;;;;5.00;4.50;;;;;;;19.04;57.65;95155.78;4887855;29;20215;-81
2022/08/14 04:12:18;;;;;;;5.03;4.63;;;;;;;19.07;57.23;95157.09;4886417;29;20681;-81
2022/08/14 04:14:46;;;;;;;4.40;4.00;;;;;;;19.10;56.98;95156.63;4886204;29;20239;-80
2022/08/14 04:17:12;;;;;;;4.70;4.32;;;;;;;19.13;56.94;95156.16;4886983;29;20211;-80
2022/08/14 04:19:39;;;;;;;4.30;3.90;;;;;;;19.17;56.84;95157.25;4886292;29;20771;-80
2022/08/14 04:22:06;;;;;;;4.32;3.92;;;;;;;19.04;57.37;95149.78;4885319;29;20239;-81
2022/08/14 04:24:33;;;;;;;4.40;4.10;;;;;;;19.04;57.57;95149.78;4885894;29;20302;-81
2022/08/14 04:26:59;;;;;;;4.18;3.88;;;;;;;19.08;57.12;95150.84;4886006;29;20207;-81
2022/08/14 04:29:25;;;;;;;4.10;3.75;;;;;;;19.06;57.00;95139.88;4886880;29;20207;-81
2022/08/14 04:31:53;;;;;;;4.20;3.90;;;;;;;19.09;56.47;95134.97;4885826;29;20235;-81
2022/08/14 04:34:19;;;;;;;4.25;3.95;;;;;;;19.01;56.71;95143.22;4886473;29;20239;-81
2022/08/14 04:44:58;;;;;;;5.07;3.67;;;;;;;19.19;56.24;95127.28;4885824;29;20325;-81
2022/08/14 04:50:10;;;;;;;3.85;3.58;;;;;;;19.28;55.77;95131.03;4885260;29;20202;-81
2022/08/14 04:52:37;;;;;;;3.60;3.30;;;;;;;19.34;55.51;95124.06;4886743;29;20220;-81
2022/08/14 04:55:03;;;;;;;4.43;3.70;;;;;;;19.31;55.34;95121.94;4885173;29;20731;-81
2022/08/14 04:57:30;;;;;;;4.30;3.88;;;;;;;19.29;55.40;95116.16;4886864;29;20227;-81
2022/08/14 04:59:56;;;;;;;4.25;3.90;;;;;;;19.28;55.51;95120.59;4885321;29;20302;-81
2022/08/14 05:02:24;;;;;;;3.60;3.40;;;;;;;19.35;54.86;95115.22;4888712;29;20228;-81
2022/08/14 05:04:51;;;;;;;4.28;3.97;;;;;;;19.39;55.00;95124.13;4906255;29;20235;-81
2022/08/14 05:07:18;;;;;;;4.00;3.70;;;;;;;19.54;54.77;95115.72;4907610;29;20496;-81
2022/08/14 05:09:44;;;;;;;4.20;3.78;;;;;;;19.48;55.22;95114.03;4907147;29;20210;-81
2022/08/14 05:12:11;;;;;;;3.47;3.28;;;;;;;19.59;55.20;95113.97;4905835;29;20298;-81
2022/08/14 05:14:38;;;;;;;4.18;3.88;;;;;;;19.55;55.14;95110.25;4905121;29;20261;-80
2022/08/14 05:17:04;;;;;;;3.80;3.50;;;;;;;19.67;54.28;95113.53;4905888;29;20203;-81
2022/08/14 05:19:31;;;;;;;4.30;3.90;;;;;;;19.80;54.11;95111.59;4905498;29;20707;-83
2022/08/14 05:22:00;;;;;;;3.88;3.58;;;;;;;19.90;53.50;95109.06;4905484;29;20223;-81
2022/08/14 05:24:26;;;;;;;4.05;3.33;;;;;;;20.01;53.22;95110.75;4906560;29;20238;-81
2022/08/14 05:26:53;;;;;;;3.80;3.50;;;;;;;20.09;53.07;95112.91;4907118;29;20713;-81
2022/08/14 05:29:19;;;;;;;3.85;3.55;;;;;;;20.20;52.99;95111.19;4906963;29;20210;-81
2022/08/14 05:31:46;;;;;;;3.90;3.60;;;;;;;20.26;52.39;95110.97;4905343;29;20226;-81
2022/08/14 05:34:12;;;;;;;3.67;3.45;;;;;;;20.33;52.40;95110.78;4906343;29;20238;-81
2022/08/14 05:36:39;;;;;;;3.80;3.50;;;;;;;20.46;52.80;95112.22;4911043;29;20206;-81
2022/08/14 05:39:07;;;;;;;5.63;3.33;;;;;;;20.49;52.06;95114.34;4911354;29;20230;-81
2022/08/14 05:41:33;;;;;;;3.70;3.40;;;;;;;20.42;51.22;95113.75;4909906;29;20203;-81
2022/08/14 05:44:00;;;;;;;3.13;2.92;;;;;;;20.39;51.05;95109.81;4911694;29;20266;-81
2022/08/14 05:46:27;;;;;;;4.93;3.20;;;;;;;20.42;51.22;95117.16;4911687;29;20236;-81
2022/08/14 05:48:55;;;;;;;5.03;2.92;;;;;;;20.34;50.60;95113.16;4911833;29;20210;-81
2022/08/14 05:51:23;;;;;;;3.15;2.90;;;;;;;20.33;50.64;95114.19;4910489;29;20230;-81
2022/08/14 05:53:49;;;;;;;3.25;2.95;;;;;;;20.41;50.93;95125.25;4910456;29;20242;-81
2022/08/14 05:56:17;;;;;;;3.03;2.65;;;;;;;20.49;51.11;95120.34;4911419;29;20275;-81
2022/08/14 05:58:43;;;;;;;3.20;3.00;;;;;;;20.40;50.80;95121.84;4909578;29;20242;-81
2022/08/14 06:01:10;;;;;;;3.03;2.80;;;;;;;20.47;51.36;95116.41;4908726;29;20250;-81
2022/08/14 06:03:36;;;;;;;3.13;2.88;;;;;;;20.49;50.98;95119.56;4909041;29;20239;-81
2022/08/14 06:06:03;;;;;;;3.42;3.13;;;;;;;20.67;50.47;95121.78;4909111;29;20231;-81
2022/08/14 06:08:31;;;;;;;3.83;2.72;;;;;;;20.82;50.56;95121.91;4909462;29;20210;-81
2022/08/14 06:11:02;;;;;;;3.20;2.90;;;;;;;20.95;49.84;95126.72;4908513;29;20230;-81
2022/08/14 06:13:30;;;;;;;3.00;2.80;;;;;;;21.03;49.75;95134.06;4908111;29;20223;-81
2022/08/14 06:15:56;;;;;;;3.03;2.83;;;;;;;21.06;50.13;95124.94;4908407;29;20211;-81
2022/08/14 06:18:23;;;;;;;3.17;2.90;;;;;;;21.03;50.45;95130.66;4908824;29;20203;-81
2022/08/14 06:20:50;;;;;;;2.90;2.70;;;;;;;21.18;50.15;95130.75;4907307;29;20213;-81
2022/08/14 06:23:17;;;;;;;2.60;2.40;;;;;;;21.21;49.18;95124.25;4909351;29;20227;-81
2022/08/14 06:25:44;;;;;;;2.85;2.65;;;;;;;21.12;48.93;95126.56;4907637;29;20274;-81
2022/08/14 06:28:16;;;;;;;5.15;3.25;;;;;;;21.14;49.45;95126.28;4906071;29;20238;-81
2022/08/14 06:30:44;;;;;;;3.00;2.80;;;;;;;21.17;49.39;95131.00;4907408;29;20206;-81
2022/08/14 06:33:11;;;;;;;3.00;2.80;;;;;;;21.29;49.47;95135.06;4907693;29;20332;-81
2022/08/14 06:35:39;;;;;;;2.90;2.70;;;;;;;21.43;49.54;95127.50;4907169;29;20242;-80
2022/08/14 06:38:05;;;;;;;3.00;2.80;;;;;;;21.56;49.34;95127.03;4907195;29;20258;-81
2022/08/14 06:40:33;;;;;;;5.60;2.70;;;;;;;21.65;49.21;95125.50;4906420;29;20230;-81
2022/08/14 06:43:01;;;;;;;2.83;2.63;;;;;;;21.68;48.92;95116.34;4907058;29;20274;-81
2022/08/14 06:45:29;;;;;;;3.42;2.75;;;;;;;21.67;49.16;95112.16;4906058;29;20235;-81
2022/08/14 06:47:56;;;;;;;2.80;2.60;;;;;;;21.70;49.00;95109.81;4907059;29;20230;-81
2022/08/14 06:50:24;;;;;;;2.72;2.50;;;;;;;21.82;48.41;95109.56;4906484;29;20274;-81
2022/08/14 06:52:50;;;;;;;3.10;2.60;;;;;;;21.83;47.49;95112.97;4906528;29;20236;-81
2022/08/14 06:55:18;;;;;;;3.55;2.70;;;;;;;21.94;47.91;95115.34;4906024;29;20290;-81
2022/08/14 06:57:47;;;;;;;2.60;2.40;;;;;;;21.97;47.25;95108.81;4907958;29;20211;-81
2022/08/14 07:00:15;;;;;;;2.80;2.60;;;;;;;22.11;47.59;95107.31;4907050;29;20214;-81
2022/08/14 07:05:46;;;;;;;2.90;2.70;;;;;;;22.29;46.86;95106.03;4893332;29;20271;-81
2022/08/14 07:08:15;;;;;;;2.72;2.53;;;;;;;22.44;45.69;95102.63;4892639;29;20211;-81
2022/08/14 07:10:42;;;;;;;3.00;2.80;;;;;;;22.55;46.35;95096.31;4891416;29;20227;-81
2022/08/14 07:13:09;;;;;;;4.80;2.80;;;;;;;22.68;45.84;95101.84;4892061;29;20250;-81
2022/08/14 07:15:36;;;;;;;3.65;2.95;;;;;;;22.84;44.55;95096.59;4891333;29;20787;-81
2022/08/14 07:18:03;;;;;;;2.95;2.75;;;;;;;22.89;44.21;95093.97;4892072;29;20260;-81
2022/08/14 07:20:31;;;;;;;2.92;2.72;;;;;;;23.01;45.39;95083.94;4891291;29;20391;-81
2022/08/14 07:22:59;;;;;;;2.97;2.78;;;;;;;23.14;44.26;95077.34;4891606;29;20252;-81
2022/08/14 07:25:25;;;;;;;3.10;2.53;;;;;;;23.32;44.37;95079.38;4890695;29;20259;-81
2022/08/14 07:27:54;;;;;;;3.25;2.75;;;;;;;23.42;43.43;95074.09;4891364;29;20208;-81
2022/08/14 07:30:21;;;;;;;3.47;2.33;;;;;;;23.56;42.80;95064.59;4890809;29;20232;-82
2022/08/14 07:32:47;;;;;;;3.20;2.92;;;;;;;23.58;42.52;95061.69;4890361;29;20231;-82
2022/08/14 07:35:14;;;;;;;3.22;2.70;;;;;;;23.73;42.80;95062.41;4891214;29;20260;-84
2022/08/14 07:37:42;;;;;;;2.70;2.50;;;;;;;23.89;42.77;95057.06;4891539;29;20245;-82
2022/08/14 07:40:11;;;;;;;2.78;2.53;;;;;;;24.06;41.97;95049.56;4889096;29;20807;-81
2022/08/14 07:42:38;;;;;;;4.97;2.70;;;;;;;24.04;41.31;95047.25;4889220;29;20223;-82
2022/08/14 07:45:05;;;;;;;2.80;2.60;;;;;;;24.11;41.25;95045.06;4889597;29;20250;-82
2022/08/14 07:47:31;;;;;;;3.58;2.63;;;;;;;24.23;41.71;95047.38;4891008;29;20207;-82
2022/08/14 07:50:01;;;;;;;3.03;2.83;;;;;;;24.42;41.73;95050.13;4889994;29;20259;-82
2022/08/14 07:52:28;;;;;;;2.90;2.70;;;;;;;24.51;41.82;95034.50;4889753;29;20234;-82
2022/08/14 07:54:56;;;;;;;2.58;2.30;;;;;;;24.66;40.69;95034.38;4889098;29;20239;-82
2022/08/14 07:57:23;;;;;;;2.65;2.45;;;;;;;24.72;41.52;95031.41;4889281;29;20208;-82
2022/08/14 07:59:49;;;;;;;3.05;2.72;;;;;;;24.73;40.70;95024.31;4889911;29;20211;-82
2022/08/14 08:02:17;;;;;;;2.75;2.50;;;;;;;24.82;41.19;95035.03;4889466;29;20224;-82
2022/08/14 08:04:46;;;;;;;2.97;2.78;;;;;;;25.05;41.13;95032.41;4905719;29;20239;-81
2022/08/14 08:07:13;;;;;;;2.90;2.70;;;;;;;25.33;40.67;95037.91;4909237;29;20225;-82
2022/08/14 08:09:43;;;;;;;2.80;2.60;;;;;;;25.55;40.46;95034.72;4911047;29;20206;-81
2022/08/14 08:12:14;;;;;;;2.50;2.40;;;;;;;25.47;38.63;95029.00;4910783;29;20258;-82
2022/08/14 08:14:42;;;;;;;3.75;2.60;;;;;;;25.59;38.78;95028.59;4911066;29;20238;-82
2022/08/14 08:17:09;;;;;;;2.67;2.47;;;;;;;25.72;38.55;95032.41;4912019;29;20203;-82
2022/08/14 08:19:37;;;;;;;2.83;2.60;;;;;;;25.84;37.98;95035.38;4909814;29;20251;-82
2022/08/14 08:22:06;;;;;;;2.70;2.50;;;;;;;26.03;38.03;95028.25;4911521;29;20231;-82
2022/08/14 08:24:34;;;;;;;4.25;2.70;;;;;;;26.08;37.47;95033.44;4911164;29;20234;-82
2022/08/14 08:27:01;;;;;;;2.55;2.33;;;;;;;26.08;37.75;95032.66;4911407;29;20207;-82
2022/08/14 08:29:29;;;;;;;3.35;2.55;;;;;;;26.23;37.96;95029.78;4912396;29;20239;-82
2022/08/14 08:31:56;;;;;;;2.92;2.70;;;;;;;26.42;37.05;95030.56;4910399;29;20719;-82
2022/08/14 08:34:22;;;;;;;2.88;2.58;;;;;;;26.53;36.97;95043.59;4909927;29;20754;-82
2022/08/14 08:36:48;;;;;;;2.60;2.45;;;;;;;26.49;36.52;95027.56;4910789;29;20230;-82
2022/08/14 08:39:15;;;;;;;3.50;2.60;;;;;;;26.57;36.61;95032.16;4910912;29;20218;-82
2022/08/14 08:41:44;;;;;;;2.80;2.60;;;;;;;26.70;36.26;95026.13;4909465;29;20211;-82
2022/08/14 08:44:10;;;;;;;3.05;2.65;;;;;;;26.93;36.28;95024.41;4910834;29;20250;-82
2022/08/14 08:46:38;;;;;;;2.75;2.55;;;;;;;26.94;36.24;95023.31;4909490;29;20254;-82
2022/08/14 08:49:05;;;;;;;3.53;3.00;;;;;;;26.98;35.32;95032.25;4910223;29;20250;-82
2022/08/14 08:51:35;;;;;;;3.25;2.60;;;;;;;27.20;36.10;95022.84;4911516;29;20211;-82
2022/08/14 08:54:03;;;;;;;3.25;2.25;;;;;;;27.42;36.11;95021.06;4911921;29;20246;-82
2022/08/14 08:56:37;;;;;;;2.80;2.60;;;;;;;27.56;35.37;95022.88;4910765;29;20266;-82
2022/08/14 08:59:16;;;;;;;2.70;2.50;;;;;;;27.53;35.23;95019.75;4909821;29;20210;-82
2022/08/14 09:01:52;;;;;;;2.80;2.60;;;;;;;27.65;34.68;95015.88;4907690;29;20210;-82
2022/08/14 09:04:19;;;;;;;3.13;2.60;;;;;;;27.65;34.68;95021.16;4908991;29;20234;-82
2022/08/14 09:06:46;;;;;;;4.43;2.55;;;;;;;27.73;34.68;95012.50;4908043;29;20214;-82
2022/08/14 09:09:23;;;;;;;4.95;2.55;;;;;;;27.85;34.13;95020.72;4908077;29;20207;-82
2022/08/14 09:11:50;;;;;;;2.90;2.70;;;;;;;27.77;33.97;95016.91;4908537;29;20301;-82
2022/08/14 09:14:17;;;;;;;3.10;2.70;;;;;;;27.70;34.39;95026.34;4906618;29;20402;-82
2022/08/14 09:16:44;;;;;;;3.95;2.65;;;;;;;27.84;33.71;95017.28;4907617;29;20203;-82
2022/08/14 09:19:12;;;;;;;2.80;2.60;;;;;;;28.07;34.40;95007.50;4907836;29;20215;-82
2022/08/14 09:21:39;;;;;;;4.72;2.92;;;;;;;28.07;33.78;94988.97;4904818;29;20214;-82
2022/08/14 09:24:07;;;;;;;6.38;2.67;;;;;;;27.96;33.65;95005.38;4905336;29;20238;-82
2022/08/14 09:26:33;;;;;;;2.63;2.42;;;;;;;28.24;33.53;95011.38;4905729;29;20202;-82
2022/08/14 09:29:00;;;;;;;3.10;2.90;;;;;;;28.35;33.87;95012.66;4905286;29;20627;-82
2022/08/14 09:31:28;;;;;;;2.85;2.65;;;;;;;28.47;33.39;95010.28;4904832;29;20619;-82
2022/08/14 09:34:17;;;;;;;3.25;3.05;;;;;;;28.69;33.29;95014.72;4904457;29;20246;-82
2022/08/14 09:36:59;;;;;;;2.90;2.70;;;;;;;28.82;32.91;95006.72;4905714;29;20206;-82
2022/08/14 09:39:40;;;;;;;4.07;2.92;;;;;;;28.93;32.75;95009.09;4906020;29;20238;-82
2022/08/14 09:42:23;;;;;;;4.88;2.90;;;;;;;28.82;31.95;94996.13;4906203;29;20226;-82
2022/08/14 09:45:03;;;;;;;3.78;2.80;;;;;;;28.91;32.11;94995.38;4904840;29;20252;-82
2022/08/14 09:47:44;;;;;;;3.42;3.17;;;;;;;28.66;32.23;95007.41;4906012;29;20485;-82
2022/08/14 09:50:23;;;;;;;3.33;3.05;;;;;;;28.67;31.38;95012.38;4906033;29;20218;-82
2022/08/14 09:52:53;;;;;;;3.22;3.03;;;;;;;28.88;31.61;95008.13;4907058;29;20832;-82
2022/08/14 09:55:22;;;;;;;3.10;2.90;;;;;;;28.88;30.85;95004.69;4906162;29;20429;-82
2022/08/14 09:57:49;;;;;;;3.47;3.17;;;;;;;29.05;31.12;95001.34;4906448;29;20207;-82
2022/08/14 10:00:18;;;;;;;3.15;2.95;;;;;;;29.10;30.38;94998.53;4905711;29;20230;-82
2022/08/14 10:02:56;;;;;;;2.90;2.70;;;;;;;29.31;31.27;94988.16;4907252;29;20230;-82
2022/08/14 10:05:33;;;;;;;3.00;2.67;;;;;;;29.41;31.29;94982.59;4888129;29;20239;-82
2022/08/14 10:08:01;;;;;;;4.72;2.95;;;;;;;29.47;30.39;94981.34;4888709;29;20268;-82
2022/08/14 10:10:30;;;;;;;3.45;3.17;;;;;;;29.44;29.46;94972.13;4887329;29;20255;-82
2022/08/14 10:12:57;;;;;;;3.50;2.92;;;;;;;29.53;30.12;94972.91;4887422;29;20323;-82
2022/08/14 10:15:26;;;;;;;3.08;2.80;;;;;;;29.81;28.90;94980.59;4887765;29;20239;-82
2022/08/14 10:18:06;;;;;;;3.38;2.88;;;;;;;29.85;28.77;94974.31;4888296;29;20207;-82
2022/08/14 10:20:39;;;;;;;2.92;2.72;;;;;;;29.78;28.53;94970.59;4886607;29;20688;-82
2022/08/14 10:23:13;;;;;;;2.90;2.70;;;;;;;29.69;28.75;94967.94;4891085;29;20257;-82
2022/08/14 10:25:43;;;;;;;2.67;2.47;;;;;;;29.58;27.75;94972.00;4891481;29;20239;-82
2022/08/14 10:28:14;;;;;;;2.92;2.70;;;;;;;29.71;28.71;94965.75;4890939;29;20230;-82
2022/08/14 10:30:41;;;;;;;3.33;2.85;;;;;;;29.80;28.53;94960.44;4890246;29;20271;-82
2022/08/14 10:33:08;;;;;;;3.08;2.83;;;;;;;29.83;27.85;94960.56;4890253;29;20874;-82
2022/08/14 10:35:43;;;;;;;2.90;2.70;;;;;;;29.90;27.58;94963.56;4890634;29;20244;-82
2022/08/14 10:38:10;;;;;;;3.42;2.90;;;;;;;29.77;28.44;94961.84;4890130;29;20222;-82
2022/08/14 10:40:37;;;;;;;3.08;2.88;;;;;;;29.82;28.98;94950.31;4889682;29;20208;-82
2022/08/14 10:43:15;;;;;;;3.05;2.85;;;;;;;29.74;28.90;94951.06;4890626;29;20224;-82
2022/08/14 10:45:53;;;;;;;2.83;2.63;;;;;;;29.85;28.04;94942.47;4891358;29;20223;-82
2022/08/14 10:48:20;;;;;;;2.95;2.75;;;;;;;29.89;28.16;94940.75;4891507;29;20283;-82
2022/08/14 10:50:50;;;;;;;2.50;2.40;;;;;;;29.86;26.91;94937.94;4890434;29;20236;-82
2022/08/14 10:53:27;;;;;;;3.45;2.70;;;;;;;29.77;28.12;94931.88;4889803;29;20380;-81
2022/08/14 10:55:58;;;;;;;2.75;2.60;;;;;;;29.93;28.64;94929.50;4890788;29;20214;-82
2022/08/14 10:58:28;;;;;;;3.17;2.97;;;;;;;30.14;29.36;94925.13;4891056;29;20211;-82
2022/08/14 11:00:57;;;;;;;2.80;2.60;;;;;;;30.14;27.67;94923.25;4890491;29;20227;-82
2022/08/14 11:03:24;;;;;;;2.60;2.40;;;;;;;30.12;28.26;94922.00;4895196;29;20251;-82
2022/08/14 11:05:52;;;;;;;3.75;2.47;;;;;;;29.86;27.55;94924.66;4908689;29;20215;-82
2022/08/14 11:08:31;;;;;;;3.10;2.72;;;;;;;29.72;27.59;94924.84;4908485;29;20262;-82
2022/08/14 11:11:01;;;;;;;2.65;2.40;;;;;;;29.95;27.70;94914.03;4907414;29;20202;-82
2022/08/14 11:13:29;;;;;;;3.90;2.72;;;;;;;30.01;27.06;94913.59;4907546;29;20227;-82
2022/08/14 11:15:59;;;;;;;2.90;2.70;;;;;;;30.11;27.53;94910.59;4907838;29;20715;-82
2022/08/14 11:18:27;;;;;;;3.05;2.80;;;;;;;30.04;28.07;94909.50;4907950;29;20704;-82
2022/08/14 11:20:58;;;;;;;3.97;2.70;;;;;;;30.08;27.31;94905.13;4906431;29;20498;-82
2022/08/14 11:23:28;;;;;;;2.75;2.55;;;;;;;30.30;27.32;94893.53;4909938;29;20227;-82
2022/08/14 11:25:57;;;;;;;2.75;2.55;;;;;;;30.26;26.35;94896.03;4909639;29;20241;-82
2022/08/14 11:28:26;;;;;;;2.55;2.45;;;;;;;30.41;26.73;94892.06;4909102;29;20599;-82
2022/08/14 11:30:55;;;;;;;2.90;2.63;;;;;;;30.33;26.14;94877.72;4909637;29;20235;-82
2022/08/14 11:33:23;;;;;;;2.83;2.42;;;;;;;30.29;26.66;94882.13;4907768;29;20629;-82
2022/08/14 11:35:49;;;;;;;2.75;2.55;;;;;;;30.08;27.22;94868.75;4908799;29;20230;-82
2022/08/14 11:38:18;;;;;;;2.90;2.70;;;;;;;30.26;27.66;94863.38;4908166;29;20210;-82
2022/08/14 11:40:46;;;;;;;2.90;2.70;;;;;;;30.36;26.53;94869.13;4907812;29;20274;-82
2022/08/14 11:43:12;;;;;;;2.80;2.60;;;;;;;30.61;26.93;94856.84;4908438;29;20254;-82
2022/08/14 11:45:40;;;;;;;3.20;2.90;;;;;;;30.42;25.96;94859.88;4907856;29;20234;-82
2022/08/14 11:48:17;;;;;;;2.50;2.40;;;;;;;30.47;26.19;94856.25;4907910;29;20210;-82
2022/08/14 11:50:44;;;;;;;2.55;2.40;;;;;;;30.43;26.07;94850.00;4907706;29;20222;-82
2022/08/14 11:53:21;;;;;;;2.95;2.50;;;;;;;30.38;26.47;94852.88;4907693;29;20226;-82
2022/08/14 11:55:55;;;;;;;3.67;2.97;;;;;;;30.56;27.10;94862.34;4906958;29;20231;-82